sensor_id;sensor_type;location;lat;lon;timestamp;P1;durP1;ratioP1;P2;durP2;ratioP2
9924;SDS011;5001;51.674;7.868;2023-02-21T00:00:33;61.57;;;40.00;;
9924;SDS011;5001;51.674;7.868;2023-02-21T00:03:19;64.17;;;39.13;;
9924;SDS011;5001;51.674;7.868;2023-02-21T00:06:06;59.43;;;40.23;;
9924;SDS011;5001;51.674;7.868;2023-02-21T00:08:52;63.43;;;37.73;;
9924;SDS011;5001;51.674;7.868;2023-02-21T00:11:41;61.50;;;39.40;;
9924;SDS011;5001;51.674;7.868;2023-02-21T00:14:28;58.83;;;39.70;;
9924;SDS011;5001;51.674;7.868;2023-02-21T00:17:13;58.53;;;37.13;;
9924;SDS011;5001;51.674;7.868;2023-02-21T00:19:59;58.20;;;38.90;;
9924;SDS011;5001;51.674;7.868;2023-02-21T00:22:45;64.63;;;39.43;;
9924;SDS011;5001;51.674;7.868;2023-02-21T00:25:30;65.30;;;39.63;;
9924;SDS011;5001;51.674;7.868;2023-02-21T00:28:16;59.40;;;39.63;;
9924;SDS011;5001;51.674;7.868;2023-02-21T00:31:02;63.60;;;38.20;;
9924;SDS011;5001;51.674;7.868;2023-02-21T00:33:49;65.03;;;37.53;;
9924;SDS011;5001;51.674;7.868;2023-02-21T00:36:35;61.03;;;39.03;;
9924;SDS011;5001;51.674;7.868;2023-02-21T00:39:22;61.37;;;38.47;;
9924;SDS011;5001;51.674;7.868;2023-02-21T00:42:08;62.87;;;38.70;;
9924;SDS011;5001;51.674;7.868;2023-02-21T00:44:53;70.00;;;40.63;;
9924;SDS011;5001;51.674;7.868;2023-02-21T00:47:38;69.90;;;39.73;;
9924;SDS011;5001;51.674;7.868;2023-02-21T00:50:24;72.07;;;42.23;;
9924;SDS011;5001;51.674;7.868;2023-02-21T00:53:09;69.40;;;41.33;;
9924;SDS011;5001;51.674;7.868;2023-02-21T00:55:55;72.57;;;42.07;;
9924;SDS011;5001;51.674;7.868;2023-02-21T00:58:40;71.70;;;42.73;;
9924;SDS011;5001;51.674;7.868;2023-02-21T01:01:25;72.27;;;42.70;;
9924;SDS011;5001;51.674;7.868;2023-02-21T01:04:11;72.93;;;42.83;;
9924;SDS011;5001;51.674;7.868;2023-02-21T01:06:56;73.43;;;43.07;;
9924;SDS011;5001;51.674;7.868;2023-02-21T01:09:42;72.23;;;43.17;;
9924;SDS011;5001;51.674;7.868;2023-02-21T01:12:27;71.43;;;43.57;;
9924;SDS011;5001;51.674;7.868;2023-02-21T01:15:13;73.80;;;42.80;;
9924;SDS011;5001;51.674;7.868;2023-02-21T01:17:59;74.47;;;42.63;;
9924;SDS011;5001;51.674;7.868;2023-02-21T01:20:44;74.67;;;43.70;;
9924;SDS011;5001;51.674;7.868;2023-02-21T01:23:32;74.83;;;43.23;;
9924;SDS011;5001;51.674;7.868;2023-02-21T01:26:17;70.77;;;43.23;;
9924;SDS011;5001;51.674;7.868;2023-02-21T01:29:03;76.40;;;45.23;;
9924;SDS011;5001;51.674;7.868;2023-02-21T01:31:48;80.77;;;43.27;;
9924;SDS011;5001;51.674;7.868;2023-02-21T01:34:37;73.67;;;43.80;;
9924;SDS011;5001;51.674;7.868;2023-02-21T01:37:22;78.67;;;45.50;;
9924;SDS011;5001;51.674;7.868;2023-02-21T01:40:08;80.13;;;44.93;;
9924;SDS011;5001;51.674;7.868;2023-02-21T01:42:58;82.67;;;46.10;;
9924;SDS011;5001;51.674;7.868;2023-02-21T01:45:50;80.50;;;45.43;;
9924;SDS011;5001;51.674;7.868;2023-02-21T01:48:37;78.77;;;44.60;;
9924;SDS011;5001;51.674;7.868;2023-02-21T01:51:24;78.93;;;44.67;;
9924;SDS011;5001;51.674;7.868;2023-02-21T01:54:15;87.23;;;43.77;;
9924;SDS011;5001;51.674;7.868;2023-02-21T01:57:03;82.03;;;43.73;;
9924;SDS011;5001;51.674;7.868;2023-02-21T01:59:51;85.57;;;45.77;;
9924;SDS011;5001;51.674;7.868;2023-02-21T02:05:45;86.00;;;46.27;;
9924;SDS011;5001;51.674;7.868;2023-02-21T02:08:39;86.20;;;44.23;;
9924;SDS011;5001;51.674;7.868;2023-02-21T02:14:22;84.23;;;46.83;;
9924;SDS011;5001;51.674;7.868;2023-02-21T02:17:10;84.13;;;45.17;;
9924;SDS011;5001;51.674;7.868;2023-02-21T02:32:06;91.33;;;45.70;;
9924;SDS011;5001;51.674;7.868;2023-02-21T02:34:46;90.37;;;46.07;;
9924;SDS011;5001;51.674;7.868;2023-02-21T02:37:30;96.83;;;48.50;;
9924;SDS011;5001;51.674;7.868;2023-02-21T02:40:08;88.10;;;45.93;;
9924;SDS011;5001;51.674;7.868;2023-02-21T02:43:04;91.27;;;46.97;;
9924;SDS011;5001;51.674;7.868;2023-02-21T02:48:25;90.07;;;46.27;;
9924;SDS011;5001;51.674;7.868;2023-02-21T02:51:10;86.30;;;46.47;;
9924;SDS011;5001;51.674;7.868;2023-02-21T02:53:41;86.53;;;45.97;;
9924;SDS011;5001;51.674;7.868;2023-02-21T02:56:10;94.90;;;49.00;;
9924;SDS011;5001;51.674;7.868;2023-02-21T02:58:50;97.93;;;48.47;;
9924;SDS011;5001;51.674;7.868;2023-02-21T03:09:38;95.37;;;49.73;;
9924;SDS011;5001;51.674;7.868;2023-02-21T03:12:14;96.03;;;48.80;;
9924;SDS011;5001;51.674;7.868;2023-02-21T03:17:59;96.87;;;48.73;;
9924;SDS011;5001;51.674;7.868;2023-02-21T03:20:33;113.53;;;50.43;;
9924;SDS011;5001;51.674;7.868;2023-02-21T03:23:02;102.70;;;49.03;;
9924;SDS011;5001;51.674;7.868;2023-02-21T03:25:31;121.33;;;51.00;;
9924;SDS011;5001;51.674;7.868;2023-02-21T03:28:02;104.23;;;49.33;;
9924;SDS011;5001;51.674;7.868;2023-02-21T03:30:36;106.40;;;49.87;;
9924;SDS011;5001;51.674;7.868;2023-02-21T03:33:04;108.63;;;50.73;;
9924;SDS011;5001;51.674;7.868;2023-02-21T03:35:32;109.27;;;49.33;;
9924;SDS011;5001;51.674;7.868;2023-02-21T03:37:59;109.67;;;49.83;;
9924;SDS011;5001;51.674;7.868;2023-02-21T03:40:28;118.73;;;50.17;;
9924;SDS011;5001;51.674;7.868;2023-02-21T03:42:59;114.13;;;49.97;;
9924;SDS011;5001;51.674;7.868;2023-02-21T03:45:34;116.70;;;52.10;;
9924;SDS011;5001;51.674;7.868;2023-02-21T03:48:08;111.50;;;51.73;;
9924;SDS011;5001;51.674;7.868;2023-02-21T03:50:37;114.33;;;50.40;;
9924;SDS011;5001;51.674;7.868;2023-02-21T03:53:04;124.47;;;53.60;;
9924;SDS011;5001;51.674;7.868;2023-02-21T03:55:35;111.40;;;51.83;;
9924;SDS011;5001;51.674;7.868;2023-02-21T03:58:08;122.13;;;52.27;;
9924;SDS011;5001;51.674;7.868;2023-02-21T04:00:36;119.47;;;51.97;;
9924;SDS011;5001;51.674;7.868;2023-02-21T04:03:03;129.50;;;56.27;;
9924;SDS011;5001;51.674;7.868;2023-02-21T04:05:45;118.27;;;52.00;;
9924;SDS011;5001;51.674;7.868;2023-02-21T04:08:12;116.73;;;53.80;;
9924;SDS011;5001;51.674;7.868;2023-02-21T04:10:40;136.57;;;54.77;;
9924;SDS011;5001;51.674;7.868;2023-02-21T04:13:18;132.50;;;51.67;;
9924;SDS011;5001;51.674;7.868;2023-02-21T04:15:46;129.07;;;54.27;;
9924;SDS011;5001;51.674;7.868;2023-02-21T04:18:14;143.70;;;54.53;;
9924;SDS011;5001;51.674;7.868;2023-02-21T04:20:43;133.83;;;52.23;;
9924;SDS011;5001;51.674;7.868;2023-02-21T04:23:16;135.83;;;55.80;;
9924;SDS011;5001;51.674;7.868;2023-02-21T04:25:47;156.60;;;56.73;;
9924;SDS011;5001;51.674;7.868;2023-02-21T04:28:21;152.67;;;56.90;;
9924;SDS011;5001;51.674;7.868;2023-02-21T04:30:48;146.77;;;55.27;;
9924;SDS011;5001;51.674;7.868;2023-02-21T04:33:16;154.93;;;57.40;;
9924;SDS011;5001;51.674;7.868;2023-02-21T04:35:44;149.33;;;59.00;;
9924;SDS011;5001;51.674;7.868;2023-02-21T04:38:21;151.47;;;55.17;;
9924;SDS011;5001;51.674;7.868;2023-02-21T04:40:48;150.73;;;57.07;;
9924;SDS011;5001;51.674;7.868;2023-02-21T04:43:15;153.73;;;59.37;;
9924;SDS011;5001;51.674;7.868;2023-02-21T04:45:43;154.43;;;60.67;;
9924;SDS011;5001;51.674;7.868;2023-02-21T04:48:10;151.47;;;59.40;;
9924;SDS011;5001;51.674;7.868;2023-02-21T04:50:37;161.50;;;59.03;;
9924;SDS011;5001;51.674;7.868;2023-02-21T04:53:03;146.93;;;59.47;;
9924;SDS011;5001;51.674;7.868;2023-02-21T04:55:30;157.83;;;59.40;;
9924;SDS011;5001;51.674;7.868;2023-02-21T04:57:57;142.53;;;54.57;;
9924;SDS011;5001;51.674;7.868;2023-02-21T05:00:24;138.43;;;57.33;;
9924;SDS011;5001;51.674;7.868;2023-02-21T05:02:52;146.60;;;57.40;;
9924;SDS011;5001;51.674;7.868;2023-02-21T05:05:19;144.07;;;55.47;;
9924;SDS011;5001;51.674;7.868;2023-02-21T05:07:47;158.50;;;58.30;;
9924;SDS011;5001;51.674;7.868;2023-02-21T05:10:15;151.03;;;56.93;;
9924;SDS011;5001;51.674;7.868;2023-02-21T05:12:43;154.30;;;57.87;;
9924;SDS011;5001;51.674;7.868;2023-02-21T05:15:11;156.37;;;57.27;;
9924;SDS011;5001;51.674;7.868;2023-02-21T05:17:39;148.97;;;58.03;;
9924;SDS011;5001;51.674;7.868;2023-02-21T05:20:06;150.90;;;58.20;;
9924;SDS011;5001;51.674;7.868;2023-02-21T05:22:38;159.83;;;60.37;;
9924;SDS011;5001;51.674;7.868;2023-02-21T05:25:06;140.73;;;56.47;;
9924;SDS011;5001;51.674;7.868;2023-02-21T05:27:39;150.67;;;59.33;;
9924;SDS011;5001;51.674;7.868;2023-02-21T05:30:07;149.57;;;57.67;;
9924;SDS011;5001;51.674;7.868;2023-02-21T05:32:34;137.87;;;55.87;;
9924;SDS011;5001;51.674;7.868;2023-02-21T05:35:02;141.17;;;56.97;;
9924;SDS011;5001;51.674;7.868;2023-02-21T05:37:29;139.77;;;56.20;;
9924;SDS011;5001;51.674;7.868;2023-02-21T05:39:56;133.00;;;55.40;;
9924;SDS011;5001;51.674;7.868;2023-02-21T05:42:24;138.20;;;55.87;;
9924;SDS011;5001;51.674;7.868;2023-02-21T05:44:51;140.30;;;55.97;;
9924;SDS011;5001;51.674;7.868;2023-02-21T05:47:18;133.53;;;56.27;;
9924;SDS011;5001;51.674;7.868;2023-02-21T05:49:45;139.77;;;55.17;;
9924;SDS011;5001;51.674;7.868;2023-02-21T05:52:14;128.47;;;52.83;;
9924;SDS011;5001;51.674;7.868;2023-02-21T05:54:42;123.57;;;53.67;;
9924;SDS011;5001;51.674;7.868;2023-02-21T05:57:10;127.10;;;54.13;;
9924;SDS011;5001;51.674;7.868;2023-02-21T05:59:37;119.40;;;51.67;;
9924;SDS011;5001;51.674;7.868;2023-02-21T06:02:05;125.90;;;54.07;;
9924;SDS011;5001;51.674;7.868;2023-02-21T06:04:32;133.30;;;54.87;;
9924;SDS011;5001;51.674;7.868;2023-02-21T06:06:59;130.97;;;54.40;;
9924;SDS011;5001;51.674;7.868;2023-02-21T06:09:26;124.23;;;52.97;;
9924;SDS011;5001;51.674;7.868;2023-02-21T06:11:54;133.53;;;54.50;;
9924;SDS011;5001;51.674;7.868;2023-02-21T06:14:22;130.30;;;52.60;;
9924;SDS011;5001;51.674;7.868;2023-02-21T06:16:50;128.23;;;52.47;;
9924;SDS011;5001;51.674;7.868;2023-02-21T06:19:17;125.10;;;54.10;;
9924;SDS011;5001;51.674;7.868;2023-02-21T06:21:45;124.67;;;52.33;;
9924;SDS011;5001;51.674;7.868;2023-02-21T06:24:12;131.60;;;52.77;;
9924;SDS011;5001;51.674;7.868;2023-02-21T06:26:40;127.87;;;52.87;;
9924;SDS011;5001;51.674;7.868;2023-02-21T06:29:08;124.67;;;50.87;;
9924;SDS011;5001;51.674;7.868;2023-02-21T06:31:36;139.43;;;61.50;;
9924;SDS011;5001;51.674;7.868;2023-02-21T06:34:04;109.43;;;48.17;;
9924;SDS011;5001;51.674;7.868;2023-02-21T06:36:31;119.97;;;51.20;;
9924;SDS011;5001;51.674;7.868;2023-02-21T06:38:59;112.20;;;48.17;;
9924;SDS011;5001;51.674;7.868;2023-02-21T06:41:28;112.83;;;51.33;;
9924;SDS011;5001;51.674;7.868;2023-02-21T06:43:56;111.03;;;49.17;;
9924;SDS011;5001;51.674;7.868;2023-02-21T06:46:25;115.37;;;48.93;;
9924;SDS011;5001;51.674;7.868;2023-02-21T06:48:55;117.13;;;48.67;;
9924;SDS011;5001;51.674;7.868;2023-02-21T06:51:22;114.17;;;47.60;;
9924;SDS011;5001;51.674;7.868;2023-02-21T06:53:55;114.87;;;48.80;;
9924;SDS011;5001;51.674;7.868;2023-02-21T06:56:23;106.37;;;48.53;;
9924;SDS011;5001;51.674;7.868;2023-02-21T06:58:50;108.07;;;46.93;;
9924;SDS011;5001;51.674;7.868;2023-02-21T07:01:18;117.37;;;48.03;;
9924;SDS011;5001;51.674;7.868;2023-02-21T07:03:45;109.57;;;47.83;;
9924;SDS011;5001;51.674;7.868;2023-02-21T07:06:13;118.97;;;49.03;;
9924;SDS011;5001;51.674;7.868;2023-02-21T07:08:40;118.27;;;48.73;;
9924;SDS011;5001;51.674;7.868;2023-02-21T07:11:08;116.83;;;51.40;;
9924;SDS011;5001;51.674;7.868;2023-02-21T07:13:35;121.37;;;49.07;;
9924;SDS011;5001;51.674;7.868;2023-02-21T07:16:03;121.20;;;51.43;;
9924;SDS011;5001;51.674;7.868;2023-02-21T07:18:31;128.63;;;53.07;;
9924;SDS011;5001;51.674;7.868;2023-02-21T07:20:58;126.43;;;50.40;;
9924;SDS011;5001;51.674;7.868;2023-02-21T07:23:25;132.23;;;53.20;;
9924;SDS011;5001;51.674;7.868;2023-02-21T07:25:52;130.40;;;51.70;;
9924;SDS011;5001;51.674;7.868;2023-02-21T07:28:19;133.70;;;52.20;;
9924;SDS011;5001;51.674;7.868;2023-02-21T07:30:46;129.03;;;49.40;;
9924;SDS011;5001;51.674;7.868;2023-02-21T07:33:13;130.00;;;51.13;;
9924;SDS011;5001;51.674;7.868;2023-02-21T07:35:40;132.37;;;51.70;;
9924;SDS011;5001;51.674;7.868;2023-02-21T07:38:07;139.03;;;52.63;;
9924;SDS011;5001;51.674;7.868;2023-02-21T07:40:34;125.73;;;50.17;;
9924;SDS011;5001;51.674;7.868;2023-02-21T07:43:01;142.57;;;51.37;;
9924;SDS011;5001;51.674;7.868;2023-02-21T07:45:28;135.23;;;51.63;;
9924;SDS011;5001;51.674;7.868;2023-02-21T07:47:55;129.17;;;50.43;;
9924;SDS011;5001;51.674;7.868;2023-02-21T07:50:22;129.13;;;50.00;;
9924;SDS011;5001;51.674;7.868;2023-02-21T07:52:49;139.93;;;53.27;;
9924;SDS011;5001;51.674;7.868;2023-02-21T07:55:16;135.93;;;53.87;;
9924;SDS011;5001;51.674;7.868;2023-02-21T07:57:44;137.67;;;52.07;;
9924;SDS011;5001;51.674;7.868;2023-02-21T08:00:11;132.07;;;51.27;;
9924;SDS011;5001;51.674;7.868;2023-02-21T08:02:39;129.20;;;51.37;;
9924;SDS011;5001;51.674;7.868;2023-02-21T08:05:06;145.20;;;54.87;;
9924;SDS011;5001;51.674;7.868;2023-02-21T08:07:34;138.73;;;52.73;;
9924;SDS011;5001;51.674;7.868;2023-02-21T08:10:01;135.57;;;51.37;;
9924;SDS011;5001;51.674;7.868;2023-02-21T08:12:29;137.37;;;53.37;;
9924;SDS011;5001;51.674;7.868;2023-02-21T08:14:55;152.10;;;53.73;;
9924;SDS011;5001;51.674;7.868;2023-02-21T08:17:22;132.47;;;51.60;;
9924;SDS011;5001;51.674;7.868;2023-02-21T08:19:49;142.43;;;52.30;;
9924;SDS011;5001;51.674;7.868;2023-02-21T08:22:16;146.07;;;55.30;;
9924;SDS011;5001;51.674;7.868;2023-02-21T08:24:43;151.60;;;55.40;;
9924;SDS011;5001;51.674;7.868;2023-02-21T08:27:11;145.90;;;55.87;;
9924;SDS011;5001;51.674;7.868;2023-02-21T08:29:38;141.33;;;54.00;;
9924;SDS011;5001;51.674;7.868;2023-02-21T08:32:05;137.80;;;52.13;;
9924;SDS011;5001;51.674;7.868;2023-02-21T08:34:33;144.00;;;58.47;;
9924;SDS011;5001;51.674;7.868;2023-02-21T08:37:00;146.97;;;58.23;;
9924;SDS011;5001;51.674;7.868;2023-02-21T08:39:32;150.70;;;60.63;;
9924;SDS011;5001;51.674;7.868;2023-02-21T08:41:58;147.10;;;53.87;;
9924;SDS011;5001;51.674;7.868;2023-02-21T08:44:25;129.13;;;50.60;;
9924;SDS011;5001;51.674;7.868;2023-02-21T08:46:52;124.17;;;48.87;;
9924;SDS011;5001;51.674;7.868;2023-02-21T08:49:19;131.97;;;50.57;;
9924;SDS011;5001;51.674;7.868;2023-02-21T08:51:46;120.07;;;49.50;;
9924;SDS011;5001;51.674;7.868;2023-02-21T08:54:13;116.90;;;49.67;;
9924;SDS011;5001;51.674;7.868;2023-02-21T08:56:40;119.70;;;49.47;;
9924;SDS011;5001;51.674;7.868;2023-02-21T08:59:07;112.97;;;47.70;;
9924;SDS011;5001;51.674;7.868;2023-02-21T09:01:34;113.67;;;48.20;;
9924;SDS011;5001;51.674;7.868;2023-02-21T09:04:02;119.73;;;48.90;;
9924;SDS011;5001;51.674;7.868;2023-02-21T09:06:30;114.77;;;49.40;;
9924;SDS011;5001;51.674;7.868;2023-02-21T09:08:57;109.30;;;46.97;;
9924;SDS011;5001;51.674;7.868;2023-02-21T09:11:24;116.23;;;49.53;;
9924;SDS011;5001;51.674;7.868;2023-02-21T09:13:51;124.03;;;51.77;;
9924;SDS011;5001;51.674;7.868;2023-02-21T09:16:20;114.40;;;49.20;;
9924;SDS011;5001;51.674;7.868;2023-02-21T09:18:52;113.43;;;48.23;;
9924;SDS011;5001;51.674;7.868;2023-02-21T09:21:22;118.23;;;50.57;;
9924;SDS011;5001;51.674;7.868;2023-02-21T09:23:54;112.90;;;48.43;;
9924;SDS011;5001;51.674;7.868;2023-02-21T09:26:22;114.23;;;49.40;;
9924;SDS011;5001;51.674;7.868;2023-02-21T09:28:50;120.60;;;50.27;;
9924;SDS011;5001;51.674;7.868;2023-02-21T09:31:18;120.27;;;48.77;;
9924;SDS011;5001;51.674;7.868;2023-02-21T09:33:46;119.53;;;48.73;;
9924;SDS011;5001;51.674;7.868;2023-02-21T09:36:13;108.97;;;48.93;;
9924;SDS011;5001;51.674;7.868;2023-02-21T09:38:40;115.27;;;50.67;;
9924;SDS011;5001;51.674;7.868;2023-02-21T09:41:11;112.77;;;47.60;;
9924;SDS011;5001;51.674;7.868;2023-02-21T09:43:42;113.27;;;49.00;;
9924;SDS011;5001;51.674;7.868;2023-02-21T09:46:24;107.23;;;47.13;;
9924;SDS011;5001;51.674;7.868;2023-02-21T09:48:55;103.33;;;46.60;;
9924;SDS011;5001;51.674;7.868;2023-02-21T09:51:22;106.40;;;46.87;;
9924;SDS011;5001;51.674;7.868;2023-02-21T09:53:51;98.77;;;46.50;;
9924;SDS011;5001;51.674;7.868;2023-02-21T09:56:28;106.73;;;48.13;;
9924;SDS011;5001;51.674;7.868;2023-02-21T09:59:00;108.73;;;47.07;;
9924;SDS011;5001;51.674;7.868;2023-02-21T10:06:47;106.80;;;47.23;;
9924;SDS011;5001;51.674;7.868;2023-02-21T10:15:14;115.33;;;46.97;;
9924;SDS011;5001;51.674;7.868;2023-02-21T10:17:55;115.73;;;47.10;;
9924;SDS011;5001;51.674;7.868;2023-02-21T10:20:48;106.83;;;46.63;;
9924;SDS011;5001;51.674;7.868;2023-02-21T10:23:22;115.80;;;46.67;;
9924;SDS011;5001;51.674;7.868;2023-02-21T10:25:56;111.67;;;46.20;;
9924;SDS011;5001;51.674;7.868;2023-02-21T10:28:28;106.43;;;45.80;;
9924;SDS011;5001;51.674;7.868;2023-02-21T10:31:00;101.10;;;42.07;;
9924;SDS011;5001;51.674;7.868;2023-02-21T10:33:33;94.93;;;40.00;;
9924;SDS011;5001;51.674;7.868;2023-02-21T10:36:37;101.60;;;42.43;;
9924;SDS011;5001;51.674;7.868;2023-02-21T10:38:57;92.67;;;40.37;;
9924;SDS011;5001;51.674;7.868;2023-02-21T10:41:29;90.57;;;40.13;;
9924;SDS011;5001;51.674;7.868;2023-02-21T10:44:09;89.10;;;39.03;;
9924;SDS011;5001;51.674;7.868;2023-02-21T10:46:46;80.07;;;36.40;;
9924;SDS011;5001;51.674;7.868;2023-02-21T10:49:22;79.03;;;37.23;;
9924;SDS011;5001;51.674;7.868;2023-02-21T10:52:11;81.53;;;37.80;;
9924;SDS011;5001;51.674;7.868;2023-02-21T10:54:58;81.83;;;37.17;;
9924;SDS011;5001;51.674;7.868;2023-02-21T10:57:28;79.47;;;36.73;;
9924;SDS011;5001;51.674;7.868;2023-02-21T10:59:57;87.87;;;39.20;;
9924;SDS011;5001;51.674;7.868;2023-02-21T11:02:28;82.20;;;38.37;;
9924;SDS011;5001;51.674;7.868;2023-02-21T11:05:07;88.93;;;38.57;;
9924;SDS011;5001;51.674;7.868;2023-02-21T11:08:06;80.90;;;37.90;;
9924;SDS011;5001;51.674;7.868;2023-02-21T11:10:39;83.77;;;36.93;;
9924;SDS011;5001;51.674;7.868;2023-02-21T11:15:42;77.63;;;37.43;;
9924;SDS011;5001;51.674;7.868;2023-02-21T11:18:11;82.80;;;38.13;;
9924;SDS011;5001;51.674;7.868;2023-02-21T11:20:39;75.87;;;36.87;;
9924;SDS011;5001;51.674;7.868;2023-02-21T11:25:53;79.77;;;36.17;;
9924;SDS011;5001;51.674;7.868;2023-02-21T11:28:35;80.20;;;37.37;;
9924;SDS011;5001;51.674;7.868;2023-02-21T11:31:26;82.57;;;37.23;;
9924;SDS011;5001;51.674;7.868;2023-02-21T11:34:03;83.27;;;38.33;;
9924;SDS011;5001;51.674;7.868;2023-02-21T11:36:33;75.17;;;36.87;;
9924;SDS011;5001;51.674;7.868;2023-02-21T11:47:16;75.30;;;31.83;;
9924;SDS011;5001;51.674;7.868;2023-02-21T11:52:45;67.20;;;29.60;;
9924;SDS011;5001;51.674;7.868;2023-02-21T11:55:26;62.07;;;30.20;;
9924;SDS011;5001;51.674;7.868;2023-02-21T12:08:58;63.37;;;30.10;;
9924;SDS011;5001;51.674;7.868;2023-02-21T12:25:08;49.17;;;27.33;;
9924;SDS011;5001;51.674;7.868;2023-02-21T12:33:40;46.97;;;28.77;;
9924;SDS011;5001;51.674;7.868;2023-02-21T12:39:14;54.20;;;28.50;;
9924;SDS011;5001;51.674;7.868;2023-02-21T12:44:48;45.93;;;26.77;;
9924;SDS011;5001;51.674;7.868;2023-02-21T12:47:27;54.80;;;33.53;;
9924;SDS011;5001;51.674;7.868;2023-02-21T12:50:08;58.10;;;33.30;;
9924;SDS011;5001;51.674;7.868;2023-02-21T12:53:00;51.53;;;28.83;;
9924;SDS011;5001;51.674;7.868;2023-02-21T12:55:41;49.03;;;29.20;;
9924;SDS011;5001;51.674;7.868;2023-02-21T13:00:57;59.63;;;32.60;;
9924;SDS011;5001;51.674;7.868;2023-02-21T13:11:26;56.50;;;32.13;;
9924;SDS011;5001;51.674;7.868;2023-02-21T13:14:01;46.67;;;28.60;;
9924;SDS011;5001;51.674;7.868;2023-02-21T13:16:33;48.93;;;28.83;;
9924;SDS011;5001;51.674;7.868;2023-02-21T13:19:01;45.50;;;29.30;;
9924;SDS011;5001;51.674;7.868;2023-02-21T13:27:29;35.63;;;22.53;;
9924;SDS011;5001;51.674;7.868;2023-02-21T13:30:26;37.97;;;23.83;;
9924;SDS011;5001;51.674;7.868;2023-02-21T13:32:55;36.43;;;23.93;;
9924;SDS011;5001;51.674;7.868;2023-02-21T13:35:27;33.30;;;21.87;;
9924;SDS011;5001;51.674;7.868;2023-02-21T13:38:03;32.57;;;19.47;;
9924;SDS011;5001;51.674;7.868;2023-02-21T13:43:21;30.83;;;20.20;;
9924;SDS011;5001;51.674;7.868;2023-02-21T13:57:34;30.60;;;19.27;;
9924;SDS011;5001;51.674;7.868;2023-02-21T14:08:12;24.97;;;17.07;;
9924;SDS011;5001;51.674;7.868;2023-02-21T14:18:45;23.50;;;16.10;;
9924;SDS011;5001;51.674;7.868;2023-02-21T14:21:43;24.17;;;16.30;;
9924;SDS011;5001;51.674;7.868;2023-02-21T14:29:30;23.03;;;15.93;;
9924;SDS011;5001;51.674;7.868;2023-02-21T14:37:11;25.30;;;18.03;;
9924;SDS011;5001;51.674;7.868;2023-02-21T14:39:51;26.40;;;20.20;;
9924;SDS011;5001;51.674;7.868;2023-02-21T14:51:17;28.57;;;22.17;;
9924;SDS011;5001;51.674;7.868;2023-02-21T15:12:50;29.93;;;23.87;;
9924;SDS011;5001;51.674;7.868;2023-02-21T15:15:34;31.23;;;23.57;;
9924;SDS011;5001;51.674;7.868;2023-02-21T15:18:11;35.53;;;24.97;;
9924;SDS011;5001;51.674;7.868;2023-02-21T15:20:39;34.10;;;24.10;;
9924;SDS011;5001;51.674;7.868;2023-02-21T15:23:14;34.07;;;25.10;;
9924;SDS011;5001;51.674;7.868;2023-02-21T15:25:51;35.00;;;25.43;;
9924;SDS011;5001;51.674;7.868;2023-02-21T15:28:21;35.53;;;25.20;;
9924;SDS011;5001;51.674;7.868;2023-02-21T15:31:09;36.30;;;24.93;;
9924;SDS011;5001;51.674;7.868;2023-02-21T15:33:39;33.33;;;24.87;;
9924;SDS011;5001;51.674;7.868;2023-02-21T15:36:19;33.53;;;25.07;;
9924;SDS011;5001;51.674;7.868;2023-02-21T15:41:36;31.50;;;23.87;;
9924;SDS011;5001;51.674;7.868;2023-02-21T15:44:16;35.53;;;25.13;;
9924;SDS011;5001;51.674;7.868;2023-02-21T15:49:37;36.40;;;25.67;;
9924;SDS011;5001;51.674;7.868;2023-02-21T15:52:24;34.23;;;25.43;;
9924;SDS011;5001;51.674;7.868;2023-02-21T15:57:46;37.03;;;26.93;;
9924;SDS011;5001;51.674;7.868;2023-02-21T16:00:25;40.50;;;29.80;;
9924;SDS011;5001;51.674;7.868;2023-02-21T16:08:49;33.87;;;21.80;;
9924;SDS011;5001;51.674;7.868;2023-02-21T16:20:00;32.20;;;23.63;;
9924;SDS011;5001;51.674;7.868;2023-02-21T16:22:49;35.40;;;24.13;;
9924;SDS011;5001;51.674;7.868;2023-02-21T16:25:32;34.60;;;23.90;;
9924;SDS011;5001;51.674;7.868;2023-02-21T16:27:59;41.03;;;27.03;;
9924;SDS011;5001;51.674;7.868;2023-02-21T16:30:28;44.67;;;31.00;;
9924;SDS011;5001;51.674;7.868;2023-02-21T16:33:00;43.80;;;28.83;;
9924;SDS011;5001;51.674;7.868;2023-02-21T16:35:30;36.07;;;24.17;;
9924;SDS011;5001;51.674;7.868;2023-02-21T16:37:59;38.90;;;27.20;;
9924;SDS011;5001;51.674;7.868;2023-02-21T16:40:28;36.23;;;24.87;;
9924;SDS011;5001;51.674;7.868;2023-02-21T16:42:57;30.87;;;23.27;;
9924;SDS011;5001;51.674;7.868;2023-02-21T16:45:26;35.87;;;24.00;;
9924;SDS011;5001;51.674;7.868;2023-02-21T16:47:55;33.93;;;23.97;;
9924;SDS011;5001;51.674;7.868;2023-02-21T16:50:30;37.83;;;24.40;;
9924;SDS011;5001;51.674;7.868;2023-02-21T16:53:02;33.30;;;23.27;;
9924;SDS011;5001;51.674;7.868;2023-02-21T16:55:29;36.13;;;24.03;;
9924;SDS011;5001;51.674;7.868;2023-02-21T16:58:06;35.47;;;24.27;;
9924;SDS011;5001;51.674;7.868;2023-02-21T17:00:40;32.30;;;23.57;;
9924;SDS011;5001;51.674;7.868;2023-02-21T17:03:07;38.73;;;24.87;;
9924;SDS011;5001;51.674;7.868;2023-02-21T17:05:34;35.83;;;24.33;;
9924;SDS011;5001;51.674;7.868;2023-02-21T17:08:01;39.77;;;27.00;;
9924;SDS011;5001;51.674;7.868;2023-02-21T17:10:29;40.03;;;29.33;;
9924;SDS011;5001;51.674;7.868;2023-02-21T17:12:59;48.50;;;31.97;;
9924;SDS011;5001;51.674;7.868;2023-02-21T17:15:29;48.33;;;33.73;;
9924;SDS011;5001;51.674;7.868;2023-02-21T17:17:57;46.23;;;33.13;;
9924;SDS011;5001;51.674;7.868;2023-02-21T17:20:25;50.97;;;33.07;;
9924;SDS011;5001;51.674;7.868;2023-02-21T17:22:53;55.40;;;37.80;;
9924;SDS011;5001;51.674;7.868;2023-02-21T17:25:21;48.00;;;35.20;;
9924;SDS011;5001;51.674;7.868;2023-02-21T17:27:48;52.27;;;35.57;;
9924;SDS011;5001;51.674;7.868;2023-02-21T17:30:16;51.43;;;35.63;;
9924;SDS011;5001;51.674;7.868;2023-02-21T17:32:46;109.87;;;59.97;;
9924;SDS011;5001;51.674;7.868;2023-02-21T17:35:14;47.83;;;32.60;;
9924;SDS011;5001;51.674;7.868;2023-02-21T17:37:42;48.97;;;34.27;;
9924;SDS011;5001;51.674;7.868;2023-02-21T17:40:09;48.53;;;31.57;;
9924;SDS011;5001;51.674;7.868;2023-02-21T17:42:37;46.57;;;31.63;;
9924;SDS011;5001;51.674;7.868;2023-02-21T17:45:05;45.40;;;30.63;;
9924;SDS011;5001;51.674;7.868;2023-02-21T17:47:33;47.40;;;30.73;;
9924;SDS011;5001;51.674;7.868;2023-02-21T17:50:00;45.47;;;32.13;;
9924;SDS011;5001;51.674;7.868;2023-02-21T17:52:29;50.03;;;33.10;;
9924;SDS011;5001;51.674;7.868;2023-02-21T17:54:56;46.90;;;33.27;;
9924;SDS011;5001;51.674;7.868;2023-02-21T17:57:24;50.57;;;34.43;;
9924;SDS011;5001;51.674;7.868;2023-02-21T17:59:50;50.47;;;35.77;;
9924;SDS011;5001;51.674;7.868;2023-02-21T18:02:18;47.87;;;34.37;;
9924;SDS011;5001;51.674;7.868;2023-02-21T18:04:46;50.90;;;35.73;;
9924;SDS011;5001;51.674;7.868;2023-02-21T18:07:15;53.33;;;34.17;;
9924;SDS011;5001;51.674;7.868;2023-02-21T18:09:44;52.13;;;36.97;;
9924;SDS011;5001;51.674;7.868;2023-02-21T18:12:12;64.30;;;41.43;;
9924;SDS011;5001;51.674;7.868;2023-02-21T18:14:39;63.53;;;41.10;;
9924;SDS011;5001;51.674;7.868;2023-02-21T18:17:06;67.20;;;43.93;;
9924;SDS011;5001;51.674;7.868;2023-02-21T18:19:32;63.77;;;46.57;;
9924;SDS011;5001;51.674;7.868;2023-02-21T18:22:00;60.53;;;41.07;;
9924;SDS011;5001;51.674;7.868;2023-02-21T18:24:31;69.70;;;46.23;;
9924;SDS011;5001;51.674;7.868;2023-02-21T18:26:58;83.57;;;49.30;;
9924;SDS011;5001;51.674;7.868;2023-02-21T18:29:26;88.97;;;54.97;;
9924;SDS011;5001;51.674;7.868;2023-02-21T18:31:53;55.37;;;37.90;;
9924;SDS011;5001;51.674;7.868;2023-02-21T18:34:28;52.93;;;34.47;;
9924;SDS011;5001;51.674;7.868;2023-02-21T18:36:56;53.40;;;35.00;;
9924;SDS011;5001;51.674;7.868;2023-02-21T18:39:23;59.00;;;35.50;;